sensor_id;sensor_type;location;lat;lon;timestamp;P1;durP1;ratioP1;P2;durP2;ratioP2
24153;SDS011;12312;53.362;-1.518;2023-07-22T00:00:34;6.60;;;3.58;;
24153;SDS011;12312;53.362;-1.518;2023-07-22T00:03:18;5.47;;;3.00;;
24153;SDS011;12312;53.362;-1.518;2023-07-22T00:06:08;10.57;;;3.53;;
24153;SDS011;12312;53.362;-1.518;2023-07-22T00:08:54;5.03;;;3.08;;
24153;SDS011;12312;53.362;-1.518;2023-07-22T00:11:37;5.60;;;3.28;;
24153;SDS011;12312;53.362;-1.518;2023-07-22T00:14:21;8.18;;;3.47;;
24153;SDS011;12312;53.362;-1.518;2023-07-22T00:17:05;4.43;;;2.78;;
24153;SDS011;12312;53.362;-1.518;2023-07-22T00:19:50;4.65;;;3.00;;
24153;SDS011;12312;53.362;-1.518;2023-07-22T00:22:34;4.78;;;2.47;;
24153;SDS011;12312;53.362;-1.518;2023-07-22T00:25:19;3.70;;;2.60;;
24153;SDS011;12312;53.362;-1.518;2023-07-22T00:28:03;5.40;;;3.08;;
24153;SDS011;12312;53.362;-1.518;2023-07-22T00:30:48;4.60;;;3.60;;
24153;SDS011;12312;53.362;-1.518;2023-07-22T00:33:32;5.70;;;3.15;;
24153;SDS011;12312;53.362;-1.518;2023-07-22T00:36:16;6.07;;;3.33;;
24153;SDS011;12312;53.362;-1.518;2023-07-22T00:39:01;5.93;;;3.47;;
24153;SDS011;12312;53.362;-1.518;2023-07-22T00:41:45;6.82;;;3.08;;
24153;SDS011;12312;53.362;-1.518;2023-07-22T00:44:29;5.57;;;3.42;;
24153;SDS011;12312;53.362;-1.518;2023-07-22T00:47:13;4.07;;;2.83;;
24153;SDS011;12312;53.362;-1.518;2023-07-22T00:49:57;5.15;;;3.10;;
24153;SDS011;12312;53.362;-1.518;2023-07-22T00:52:46;5.22;;;3.10;;
24153;SDS011;12312;53.362;-1.518;2023-07-22T00:55:31;7.50;;;3.00;;
24153;SDS011;12312;53.362;-1.518;2023-07-22T00:58:17;4.45;;;3.22;;
24153;SDS011;12312;53.362;-1.518;2023-07-22T01:01:01;6.15;;;3.10;;
24153;SDS011;12312;53.362;-1.518;2023-07-22T01:03:45;7.63;;;3.22;;
24153;SDS011;12312;53.362;-1.518;2023-07-22T01:06:29;5.40;;;3.50;;
24153;SDS011;12312;53.362;-1.518;2023-07-22T01:09:14;9.45;;;3.80;;
24153;SDS011;12312;53.362;-1.518;2023-07-22T01:11:58;5.72;;;3.33;;
24153;SDS011;12312;53.362;-1.518;2023-07-22T01:14:42;6.60;;;3.97;;
24153;SDS011;12312;53.362;-1.518;2023-07-22T01:17:26;6.22;;;3.50;;
24153;SDS011;12312;53.362;-1.518;2023-07-22T01:20:10;7.22;;;3.45;;
24153;SDS011;12312;53.362;-1.518;2023-07-22T01:22:55;7.53;;;3.70;;
24153;SDS011;12312;53.362;-1.518;2023-07-22T01:25:39;6.78;;;3.85;;
24153;SDS011;12312;53.362;-1.518;2023-07-22T01:28:24;11.65;;;3.60;;
24153;SDS011;12312;53.362;-1.518;2023-07-22T01:31:08;6.95;;;3.83;;
24153;SDS011;12312;53.362;-1.518;2023-07-22T01:33:52;7.55;;;3.85;;
24153;SDS011;12312;53.362;-1.518;2023-07-22T01:36:36;11.05;;;4.80;;
24153;SDS011;12312;53.362;-1.518;2023-07-22T01:39:20;8.45;;;4.60;;
24153;SDS011;12312;53.362;-1.518;2023-07-22T01:42:06;8.00;;;4.32;;
24153;SDS011;12312;53.362;-1.518;2023-07-22T01:44:50;9.13;;;3.90;;
24153;SDS011;12312;53.362;-1.518;2023-07-22T01:47:35;6.72;;;4.15;;
24153;SDS011;12312;53.362;-1.518;2023-07-22T01:50:19;11.10;;;4.38;;
24153;SDS011;12312;53.362;-1.518;2023-07-22T01:53:03;6.57;;;3.65;;
24153;SDS011;12312;53.362;-1.518;2023-07-22T01:55:49;11.48;;;4.00;;
24153;SDS011;12312;53.362;-1.518;2023-07-22T01:58:33;9.25;;;4.70;;
24153;SDS011;12312;53.362;-1.518;2023-07-22T02:01:17;6.70;;;4.05;;
24153;SDS011;12312;53.362;-1.518;2023-07-22T02:04:01;6.28;;;3.70;;
24153;SDS011;12312;53.362;-1.518;2023-07-22T02:06:45;7.63;;;3.85;;
24153;SDS011;12312;53.362;-1.518;2023-07-22T02:09:30;6.20;;;3.75;;
24153;SDS011;12312;53.362;-1.518;2023-07-22T02:12:16;6.93;;;3.90;;
24153;SDS011;12312;53.362;-1.518;2023-07-22T02:15:00;5.30;;;3.50;;
24153;SDS011;12312;53.362;-1.518;2023-07-22T02:17:46;6.03;;;3.65;;
24153;SDS011;12312;53.362;-1.518;2023-07-22T02:20:30;5.70;;;3.90;;
24153;SDS011;12312;53.362;-1.518;2023-07-22T02:23:14;5.65;;;4.00;;
24153;SDS011;12312;53.362;-1.518;2023-07-22T02:25:58;7.85;;;2.72;;
24153;SDS011;12312;53.362;-1.518;2023-07-22T02:28:42;6.55;;;3.30;;
24153;SDS011;12312;53.362;-1.518;2023-07-22T02:31:26;5.80;;;3.33;;
24153;SDS011;12312;53.362;-1.518;2023-07-22T02:34:10;5.43;;;3.20;;
24153;SDS011;12312;53.362;-1.518;2023-07-22T02:36:54;7.68;;;3.58;;
24153;SDS011;12312;53.362;-1.518;2023-07-22T02:39:38;5.78;;;3.38;;
24153;SDS011;12312;53.362;-1.518;2023-07-22T02:42:22;7.82;;;3.08;;
24153;SDS011;12312;53.362;-1.518;2023-07-22T02:45:06;5.50;;;3.22;;
24153;SDS011;12312;53.362;-1.518;2023-07-22T02:47:53;5.35;;;3.15;;
24153;SDS011;12312;53.362;-1.518;2023-07-22T02:50:37;4.40;;;2.85;;
24153;SDS011;12312;53.362;-1.518;2023-07-22T02:53:21;6.30;;;3.75;;
24153;SDS011;12312;53.362;-1.518;2023-07-22T02:56:05;5.97;;;3.20;;
24153;SDS011;12312;53.362;-1.518;2023-07-22T02:58:55;5.78;;;2.88;;
24153;SDS011;12312;53.362;-1.518;2023-07-22T03:01:39;5.35;;;3.40;;
24153;SDS011;12312;53.362;-1.518;2023-07-22T03:04:23;5.75;;;3.50;;
24153;SDS011;12312;53.362;-1.518;2023-07-22T03:07:07;7.05;;;3.58;;
24153;SDS011;12312;53.362;-1.518;2023-07-22T03:09:52;6.55;;;3.53;;
24153;SDS011;12312;53.362;-1.518;2023-07-22T03:12:36;6.03;;;4.00;;
24153;SDS011;12312;53.362;-1.518;2023-07-22T03:15:24;5.97;;;4.00;;
24153;SDS011;12312;53.362;-1.518;2023-07-22T03:18:10;6.22;;;3.90;;
24153;SDS011;12312;53.362;-1.518;2023-07-22T03:20:54;6.18;;;4.07;;
24153;SDS011;12312;53.362;-1.518;2023-07-22T03:23:38;9.43;;;4.22;;
24153;SDS011;12312;53.362;-1.518;2023-07-22T03:26:23;5.90;;;3.72;;
24153;SDS011;12312;53.362;-1.518;2023-07-22T03:29:07;4.05;;;3.17;;
24153;SDS011;12312;53.362;-1.518;2023-07-22T03:31:52;6.20;;;3.40;;
24153;SDS011;12312;53.362;-1.518;2023-07-22T03:34:36;4.80;;;2.97;;
24153;SDS011;12312;53.362;-1.518;2023-07-22T03:37:20;5.20;;;2.47;;
24153;SDS011;12312;53.362;-1.518;2023-07-22T03:40:04;4.47;;;2.70;;
24153;SDS011;12312;53.362;-1.518;2023-07-22T03:43:03;5.90;;;2.60;;
24153;SDS011;12312;53.362;-1.518;2023-07-22T03:45:47;3.47;;;2.50;;
24153;SDS011;12312;53.362;-1.518;2023-07-22T03:48:31;3.85;;;2.60;;
24153;SDS011;12312;53.362;-1.518;2023-07-22T03:51:15;3.40;;;2.58;;
24153;SDS011;12312;53.362;-1.518;2023-07-22T03:53:59;5.25;;;2.85;;
24153;SDS011;12312;53.362;-1.518;2023-07-22T03:56:43;5.68;;;2.90;;
24153;SDS011;12312;53.362;-1.518;2023-07-22T03:59:27;7.32;;;3.10;;
24153;SDS011;12312;53.362;-1.518;2023-07-22T04:02:12;7.93;;;3.10;;
24153;SDS011;12312;53.362;-1.518;2023-07-22T04:04:56;7.00;;;3.85;;
24153;SDS011;12312;53.362;-1.518;2023-07-22T04:07:40;5.97;;;3.88;;
24153;SDS011;12312;53.362;-1.518;2023-07-22T04:10:24;8.02;;;4.40;;
24153;SDS011;12312;53.362;-1.518;2023-07-22T04:13:08;9.80;;;4.55;;
24153;SDS011;12312;53.362;-1.518;2023-07-22T04:15:52;8.82;;;4.95;;
24153;SDS011;12312;53.362;-1.518;2023-07-22T04:18:36;9.25;;;4.60;;
24153;SDS011;12312;53.362;-1.518;2023-07-22T04:21:20;9.35;;;4.43;;
24153;SDS011;12312;53.362;-1.518;2023-07-22T04:24:04;9.38;;;4.60;;
24153;SDS011;12312;53.362;-1.518;2023-07-22T04:26:49;12.38;;;4.65;;
24153;SDS011;12312;53.362;-1.518;2023-07-22T04:29:33;8.90;;;5.10;;
24153;SDS011;12312;53.362;-1.518;2023-07-22T04:32:16;12.80;;;5.55;;
24153;SDS011;12312;53.362;-1.518;2023-07-22T04:35:00;12.00;;;5.35;;
24153;SDS011;12312;53.362;-1.518;2023-07-22T04:37:45;11.93;;;5.45;;
24153;SDS011;12312;53.362;-1.518;2023-07-22T04:40:29;9.30;;;5.60;;
24153;SDS011;12312;53.362;-1.518;2023-07-22T04:43:14;9.35;;;4.50;;
24153;SDS011;12312;53.362;-1.518;2023-07-22T04:45:58;13.30;;;6.15;;
24153;SDS011;12312;53.362;-1.518;2023-07-22T04:48:42;11.07;;;5.38;;
24153;SDS011;12312;53.362;-1.518;2023-07-22T04:51:26;9.57;;;5.15;;
24153;SDS011;12312;53.362;-1.518;2023-07-22T04:54:10;8.20;;;4.93;;
24153;SDS011;12312;53.362;-1.518;2023-07-22T04:56:55;10.52;;;5.47;;
24153;SDS011;12312;53.362;-1.518;2023-07-22T04:59:39;8.38;;;4.97;;
24153;SDS011;12312;53.362;-1.518;2023-07-22T05:02:23;10.30;;;5.50;;
24153;SDS011;12312;53.362;-1.518;2023-07-22T05:05:07;10.30;;;5.18;;
24153;SDS011;12312;53.362;-1.518;2023-07-22T05:07:51;9.75;;;4.82;;
24153;SDS011;12312;53.362;-1.518;2023-07-22T05:10:36;9.50;;;4.60;;
24153;SDS011;12312;53.362;-1.518;2023-07-22T05:13:20;12.27;;;5.57;;
24153;SDS011;12312;53.362;-1.518;2023-07-22T05:16:04;9.60;;;4.68;;
24153;SDS011;12312;53.362;-1.518;2023-07-22T05:18:48;9.43;;;4.85;;
24153;SDS011;12312;53.362;-1.518;2023-07-22T05:21:33;11.85;;;5.13;;
24153;SDS011;12312;53.362;-1.518;2023-07-22T05:24:17;7.97;;;4.95;;
24153;SDS011;12312;53.362;-1.518;2023-07-22T05:27:01;10.55;;;4.78;;
24153;SDS011;12312;53.362;-1.518;2023-07-22T05:29:46;10.30;;;4.72;;
24153;SDS011;12312;53.362;-1.518;2023-07-22T05:32:30;11.55;;;5.45;;
24153;SDS011;12312;53.362;-1.518;2023-07-22T05:35:14;11.30;;;5.25;;
24153;SDS011;12312;53.362;-1.518;2023-07-22T05:37:58;10.70;;;5.63;;
24153;SDS011;12312;53.362;-1.518;2023-07-22T05:40:42;8.15;;;4.45;;
24153;SDS011;12312;53.362;-1.518;2023-07-22T05:43:27;8.98;;;4.78;;
24153;SDS011;12312;53.362;-1.518;2023-07-22T05:46:11;15.43;;;5.03;;
24153;SDS011;12312;53.362;-1.518;2023-07-22T05:48:55;15.05;;;5.20;;
24153;SDS011;12312;53.362;-1.518;2023-07-22T05:51:39;13.55;;;5.18;;
24153;SDS011;12312;53.362;-1.518;2023-07-22T05:54:23;10.02;;;5.63;;
24153;SDS011;12312;53.362;-1.518;2023-07-22T05:57:08;11.65;;;4.82;;
24153;SDS011;12312;53.362;-1.518;2023-07-22T05:59:52;8.63;;;4.28;;
24153;SDS011;12312;53.362;-1.518;2023-07-22T06:02:35;15.60;;;6.53;;
24153;SDS011;12312;53.362;-1.518;2023-07-22T06:05:20;12.38;;;5.75;;
24153;SDS011;12312;53.362;-1.518;2023-07-22T06:08:04;12.00;;;5.50;;
24153;SDS011;12312;53.362;-1.518;2023-07-22T06:10:49;11.02;;;5.68;;
24153;SDS011;12312;53.362;-1.518;2023-07-22T06:13:32;10.15;;;4.72;;
24153;SDS011;12312;53.362;-1.518;2023-07-22T06:16:16;12.13;;;4.90;;
24153;SDS011;12312;53.362;-1.518;2023-07-22T06:19:00;10.38;;;4.85;;
24153;SDS011;12312;53.362;-1.518;2023-07-22T06:21:44;11.05;;;5.28;;
24153;SDS011;12312;53.362;-1.518;2023-07-22T06:24:28;10.38;;;5.43;;
24153;SDS011;12312;53.362;-1.518;2023-07-22T06:27:13;12.98;;;6.15;;
24153;SDS011;12312;53.362;-1.518;2023-07-22T06:29:56;15.23;;;6.90;;
24153;SDS011;12312;53.362;-1.518;2023-07-22T06:32:42;11.45;;;6.50;;
24153;SDS011;12312;53.362;-1.518;2023-07-22T06:35:25;12.68;;;7.18;;
24153;SDS011;12312;53.362;-1.518;2023-07-22T06:38:10;11.57;;;6.53;;
24153;SDS011;12312;53.362;-1.518;2023-07-22T06:40:54;12.25;;;6.80;;
24153;SDS011;12312;53.362;-1.518;2023-07-22T06:43:38;17.05;;;7.70;;
24153;SDS011;12312;53.362;-1.518;2023-07-22T06:46:23;16.77;;;7.80;;
24153;SDS011;12312;53.362;-1.518;2023-07-22T06:49:07;15.27;;;8.93;;
24153;SDS011;12312;53.362;-1.518;2023-07-22T06:51:52;15.40;;;8.73;;
24153;SDS011;12312;53.362;-1.518;2023-07-22T06:54:36;16.65;;;9.13;;
24153;SDS011;12312;53.362;-1.518;2023-07-22T06:57:20;19.13;;;9.63;;
24153;SDS011;12312;53.362;-1.518;2023-07-22T07:00:05;20.85;;;9.85;;
24153;SDS011;12312;53.362;-1.518;2023-07-22T07:02:49;21.48;;;10.35;;
24153;SDS011;12312;53.362;-1.518;2023-07-22T07:05:33;21.73;;;10.95;;
24153;SDS011;12312;53.362;-1.518;2023-07-22T07:08:18;23.08;;;9.90;;
24153;SDS011;12312;53.362;-1.518;2023-07-22T07:11:03;21.55;;;10.48;;
24153;SDS011;12312;53.362;-1.518;2023-07-22T07:13:47;19.67;;;9.55;;
24153;SDS011;12312;53.362;-1.518;2023-07-22T07:16:31;22.98;;;10.63;;
24153;SDS011;12312;53.362;-1.518;2023-07-22T07:19:15;18.55;;;10.00;;
24153;SDS011;12312;53.362;-1.518;2023-07-22T07:21:59;18.23;;;9.23;;
24153;SDS011;12312;53.362;-1.518;2023-07-22T07:24:43;17.27;;;8.68;;
24153;SDS011;12312;53.362;-1.518;2023-07-22T07:27:27;16.27;;;8.40;;
24153;SDS011;12312;53.362;-1.518;2023-07-22T07:30:11;18.98;;;9.23;;
24153;SDS011;12312;53.362;-1.518;2023-07-22T07:32:55;18.63;;;9.38;;
24153;SDS011;12312;53.362;-1.518;2023-07-22T07:35:40;14.98;;;7.50;;
24153;SDS011;12312;53.362;-1.518;2023-07-22T07:38:23;12.35;;;6.70;;
24153;SDS011;12312;53.362;-1.518;2023-07-22T07:41:08;12.40;;;6.72;;
24153;SDS011;12312;53.362;-1.518;2023-07-22T07:43:52;13.68;;;6.55;;
24153;SDS011;12312;53.362;-1.518;2023-07-22T07:46:36;14.30;;;6.40;;
24153;SDS011;12312;53.362;-1.518;2023-07-22T07:49:20;9.98;;;5.22;;
24153;SDS011;12312;53.362;-1.518;2023-07-22T07:52:04;10.68;;;5.00;;
24153;SDS011;12312;53.362;-1.518;2023-07-22T07:54:49;9.70;;;5.22;;
24153;SDS011;12312;53.362;-1.518;2023-07-22T07:57:33;8.80;;;5.25;;
24153;SDS011;12312;53.362;-1.518;2023-07-22T08:00:17;8.68;;;4.00;;
24153;SDS011;12312;53.362;-1.518;2023-07-22T08:03:01;7.25;;;4.25;;
24153;SDS011;12312;53.362;-1.518;2023-07-22T08:05:45;9.82;;;4.85;;
24153;SDS011;12312;53.362;-1.518;2023-07-22T08:08:30;9.75;;;4.82;;
24153;SDS011;12312;53.362;-1.518;2023-07-22T08:11:14;9.48;;;4.68;;
24153;SDS011;12312;53.362;-1.518;2023-07-22T08:13:59;8.70;;;4.50;;
24153;SDS011;12312;53.362;-1.518;2023-07-22T08:16:42;7.18;;;4.07;;
24153;SDS011;12312;53.362;-1.518;2023-07-22T08:19:26;10.88;;;4.57;;
24153;SDS011;12312;53.362;-1.518;2023-07-22T08:22:10;9.82;;;4.60;;
24153;SDS011;12312;53.362;-1.518;2023-07-22T08:24:54;8.38;;;4.18;;
24153;SDS011;12312;53.362;-1.518;2023-07-22T08:27:38;8.02;;;3.88;;
24153;SDS011;12312;53.362;-1.518;2023-07-22T08:30:22;7.88;;;4.10;;
24153;SDS011;12312;53.362;-1.518;2023-07-22T08:33:06;7.57;;;3.80;;
24153;SDS011;12312;53.362;-1.518;2023-07-22T08:35:51;7.95;;;4.00;;
24153;SDS011;12312;53.362;-1.518;2023-07-22T08:38:35;9.13;;;4.18;;
24153;SDS011;12312;53.362;-1.518;2023-07-22T08:41:20;7.63;;;3.67;;
24153;SDS011;12312;53.362;-1.518;2023-07-22T08:44:06;7.65;;;3.90;;
24153;SDS011;12312;53.362;-1.518;2023-07-22T08:46:55;7.88;;;3.83;;
24153;SDS011;12312;53.362;-1.518;2023-07-22T08:49:43;10.70;;;4.95;;
24153;SDS011;12312;53.362;-1.518;2023-07-22T08:52:31;6.85;;;3.22;;
24153;SDS011;12312;53.362;-1.518;2023-07-22T08:55:17;7.78;;;4.15;;
24153;SDS011;12312;53.362;-1.518;2023-07-22T08:58:03;7.60;;;3.90;;
24153;SDS011;12312;53.362;-1.518;2023-07-22T09:00:47;8.05;;;3.55;;
24153;SDS011;12312;53.362;-1.518;2023-07-22T09:03:32;8.13;;;3.90;;
24153;SDS011;12312;53.362;-1.518;2023-07-22T09:06:16;7.38;;;3.55;;
24153;SDS011;12312;53.362;-1.518;2023-07-22T09:09:01;7.43;;;4.15;;
24153;SDS011;12312;53.362;-1.518;2023-07-22T09:11:51;7.82;;;4.30;;
24153;SDS011;12312;53.362;-1.518;2023-07-22T09:14:36;10.98;;;4.60;;
24153;SDS011;12312;53.362;-1.518;2023-07-22T09:17:22;9.35;;;4.28;;
24153;SDS011;12312;53.362;-1.518;2023-07-22T09:20:06;6.47;;;3.75;;
24153;SDS011;12312;53.362;-1.518;2023-07-22T09:22:51;8.03;;;4.23;;
24153;SDS011;12312;53.362;-1.518;2023-07-22T09:25:35;6.95;;;3.83;;
24153;SDS011;12312;53.362;-1.518;2023-07-22T09:28:19;8.10;;;3.65;;
24153;SDS011;12312;53.362;-1.518;2023-07-22T09:31:04;8.52;;;3.80;;
24153;SDS011;12312;53.362;-1.518;2023-07-22T09:33:48;6.38;;;3.88;;
24153;SDS011;12312;53.362;-1.518;2023-07-22T09:36:38;9.23;;;3.88;;
24153;SDS011;12312;53.362;-1.518;2023-07-22T09:39:47;8.95;;;4.15;;
24153;SDS011;12312;53.362;-1.518;2023-07-22T09:42:31;8.30;;;3.95;;
24153;SDS011;12312;53.362;-1.518;2023-07-22T09:45:17;8.05;;;4.55;;
24153;SDS011;12312;53.362;-1.518;2023-07-22T09:48:03;7.75;;;4.13;;
24153;SDS011;12312;53.362;-1.518;2023-07-22T09:50:57;7.35;;;4.15;;
24153;SDS011;12312;53.362;-1.518;2023-07-22T09:53:45;6.78;;;3.67;;
24153;SDS011;12312;53.362;-1.518;2023-07-22T09:56:32;7.72;;;3.60;;
24153;SDS011;12312;53.362;-1.518;2023-07-22T09:59:28;9.35;;;3.63;;
24153;SDS011;12312;53.362;-1.518;2023-07-22T10:02:12;7.30;;;4.00;;
24153;SDS011;12312;53.362;-1.518;2023-07-22T10:04:57;7.25;;;3.28;;
24153;SDS011;12312;53.362;-1.518;2023-07-22T10:07:44;8.25;;;3.80;;
24153;SDS011;12312;53.362;-1.518;2023-07-22T10:10:38;8.52;;;3.67;;
24153;SDS011;12312;53.362;-1.518;2023-07-22T10:13:23;7.30;;;4.07;;
24153;SDS011;12312;53.362;-1.518;2023-07-22T10:16:08;6.68;;;3.53;;
24153;SDS011;12312;53.362;-1.518;2023-07-22T10:18:52;8.23;;;3.83;;
24153;SDS011;12312;53.362;-1.518;2023-07-22T10:21:37;7.13;;;3.88;;
24153;SDS011;12312;53.362;-1.518;2023-07-22T10:24:22;9.77;;;3.85;;
24153;SDS011;12312;53.362;-1.518;2023-07-22T10:27:07;5.25;;;3.33;;
24153;SDS011;12312;53.362;-1.518;2023-07-22T10:29:52;7.95;;;4.10;;
24153;SDS011;12312;53.362;-1.518;2023-07-22T10:32:41;8.63;;;3.30;;
24153;SDS011;12312;53.362;-1.518;2023-07-22T10:38:14;6.80;;;3.92;;
24153;SDS011;12312;53.362;-1.518;2023-07-22T10:40:59;9.02;;;4.22;;
24153;SDS011;12312;53.362;-1.518;2023-07-22T10:43:57;8.02;;;4.07;;
24153;SDS011;12312;53.362;-1.518;2023-07-22T10:46:42;8.48;;;4.10;;
24153;SDS011;12312;53.362;-1.518;2023-07-22T10:49:44;7.05;;;3.92;;
24153;SDS011;12312;53.362;-1.518;2023-07-22T10:52:42;11.02;;;4.13;;
24153;SDS011;12312;53.362;-1.518;2023-07-22T10:55:28;7.47;;;4.38;;
24153;SDS011;12312;53.362;-1.518;2023-07-22T10:58:12;7.90;;;3.97;;
24153;SDS011;12312;53.362;-1.518;2023-07-22T11:00:56;10.95;;;4.80;;
24153;SDS011;12312;53.362;-1.518;2023-07-22T11:07:00;8.65;;;4.63;;
24153;SDS011;12312;53.362;-1.518;2023-07-22T11:09:48;11.35;;;5.05;;
24153;SDS011;12312;53.362;-1.518;2023-07-22T11:12:32;9.30;;;5.25;;
24153;SDS011;12312;53.362;-1.518;2023-07-22T11:15:16;7.90;;;4.35;;
24153;SDS011;12312;53.362;-1.518;2023-07-22T11:18:01;9.18;;;4.15;;
24153;SDS011;12312;53.362;-1.518;2023-07-22T11:20:45;7.82;;;4.40;;
24153;SDS011;12312;53.362;-1.518;2023-07-22T11:23:29;7.15;;;4.05;;
24153;SDS011;12312;53.362;-1.518;2023-07-22T11:26:18;8.95;;;5.22;;
24153;SDS011;12312;53.362;-1.518;2023-07-22T11:29:03;9.55;;;4.30;;
24153;SDS011;12312;53.362;-1.518;2023-07-22T11:31:48;8.23;;;4.82;;
24153;SDS011;12312;53.362;-1.518;2023-07-22T11:34:33;8.23;;;4.60;;
24153;SDS011;12312;53.362;-1.518;2023-07-22T11:37:18;7.57;;;3.95;;
24153;SDS011;12312;53.362;-1.518;2023-07-22T11:40:02;8.05;;;4.57;;
24153;SDS011;12312;53.362;-1.518;2023-07-22T11:42:46;9.02;;;4.25;;
24153;SDS011;12312;53.362;-1.518;2023-07-22T11:45:31;5.70;;;3.85;;
24153;SDS011;12312;53.362;-1.518;2023-07-22T11:48:15;10.60;;;5.00;;
24153;SDS011;12312;53.362;-1.518;2023-07-22T11:51:00;8.27;;;4.97;;
24153;SDS011;12312;53.362;-1.518;2023-07-22T11:53:46;7.00;;;4.07;;
24153;SDS011;12312;53.362;-1.518;2023-07-22T11:56:32;8.82;;;4.60;;
24153;SDS011;12312;53.362;-1.518;2023-07-22T11:59:16;7.68;;;4.60;;
24153;SDS011;12312;53.362;-1.518;2023-07-22T12:02:00;8.70;;;4.55;;
24153;SDS011;12312;53.362;-1.518;2023-07-22T12:07:36;8.25;;;4.88;;
24153;SDS011;12312;53.362;-1.518;2023-07-22T12:10:23;9.68;;;5.53;;
24153;SDS011;12312;53.362;-1.518;2023-07-22T12:13:07;8.32;;;4.85;;
24153;SDS011;12312;53.362;-1.518;2023-07-22T12:18:44;8.88;;;5.15;;
24153;SDS011;12312;53.362;-1.518;2023-07-22T12:21:29;10.15;;;4.78;;
24153;SDS011;12312;53.362;-1.518;2023-07-22T12:24:14;8.88;;;5.25;;
24153;SDS011;12312;53.362;-1.518;2023-07-22T12:26:58;9.43;;;5.05;;
24153;SDS011;12312;53.362;-1.518;2023-07-22T12:29:42;7.80;;;4.30;;
24153;SDS011;12312;53.362;-1.518;2023-07-22T12:32:26;9.27;;;4.53;;
24153;SDS011;12312;53.362;-1.518;2023-07-22T12:35:10;8.68;;;6.53;;
24153;SDS011;12312;53.362;-1.518;2023-07-22T12:37:54;7.85;;;5.05;;
24153;SDS011;12312;53.362;-1.518;2023-07-22T12:40:39;11.32;;;8.77;;
24153;SDS011;12312;53.362;-1.518;2023-07-22T12:43:23;13.55;;;6.70;;
24153;SDS011;12312;53.362;-1.518;2023-07-22T12:46:08;8.63;;;4.47;;
24153;SDS011;12312;53.362;-1.518;2023-07-22T12:48:51;11.35;;;6.45;;
24153;SDS011;12312;53.362;-1.518;2023-07-22T12:51:35;10.93;;;6.05;;
24153;SDS011;12312;53.362;-1.518;2023-07-22T12:54:19;8.88;;;4.93;;
24153;SDS011;12312;53.362;-1.518;2023-07-22T12:57:04;9.00;;;4.45;;
24153;SDS011;12312;53.362;-1.518;2023-07-22T12:59:48;10.65;;;4.38;;
24153;SDS011;12312;53.362;-1.518;2023-07-22T13:02:32;8.13;;;4.43;;
24153;SDS011;12312;53.362;-1.518;2023-07-22T13:05:17;7.25;;;3.78;;
24153;SDS011;12312;53.362;-1.518;2023-07-22T13:08:02;9.32;;;4.28;;
24153;SDS011;12312;53.362;-1.518;2023-07-22T13:10:46;9.18;;;4.25;;
24153;SDS011;12312;53.362;-1.518;2023-07-22T13:13:30;8.40;;;4.53;;
24153;SDS011;12312;53.362;-1.518;2023-07-22T13:16:14;7.15;;;4.00;;
24153;SDS011;12312;53.362;-1.518;2023-07-22T13:18:58;7.47;;;3.85;;
24153;SDS011;12312;53.362;-1.518;2023-07-22T13:21:44;7.30;;;3.95;;
24153;SDS011;12312;53.362;-1.518;2023-07-22T13:24:28;8.30;;;3.35;;
24153;SDS011;12312;53.362;-1.518;2023-07-22T13:27:12;7.10;;;3.67;;
24153;SDS011;12312;53.362;-1.518;2023-07-22T13:29:56;8.68;;;4.05;;
24153;SDS011;12312;53.362;-1.518;2023-07-22T13:32:41;9.02;;;3.55;;
24153;SDS011;12312;53.362;-1.518;2023-07-22T13:35:25;7.10;;;3.63;;
24153;SDS011;12312;53.362;-1.518;2023-07-22T13:38:09;7.05;;;3.42;;
24153;SDS011;12312;53.362;-1.518;2023-07-22T13:40:53;7.95;;;3.53;;
24153;SDS011;12312;53.362;-1.518;2023-07-22T13:43:37;5.82;;;3.08;;
24153;SDS011;12312;53.362;-1.518;2023-07-22T13:46:21;5.55;;;2.90;;
24153;SDS011;12312;53.362;-1.518;2023-07-22T13:49:05;3.58;;;2.35;;
24153;SDS011;12312;53.362;-1.518;2023-07-22T13:51:48;4.72;;;2.50;;
24153;SDS011;12312;53.362;-1.518;2023-07-22T13:54:33;3.63;;;2.30;;
24153;SDS011;12312;53.362;-1.518;2023-07-22T13:57:17;4.07;;;2.38;;
24153;SDS011;12312;53.362;-1.518;2023-07-22T14:00:01;6.00;;;2.40;;
24153;SDS011;12312;53.362;-1.518;2023-07-22T14:02:45;2.95;;;1.63;;
24153;SDS011;12312;53.362;-1.518;2023-07-22T14:05:29;3.90;;;1.90;;
24153;SDS011;12312;53.362;-1.518;2023-07-22T14:08:14;2.75;;;1.70;;
24153;SDS011;12312;53.362;-1.518;2023-07-22T14:10:58;3.35;;;1.60;;
24153;SDS011;12312;53.362;-1.518;2023-07-22T14:13:42;3.38;;;1.75;;
24153;SDS011;12312;53.362;-1.518;2023-07-22T14:16:26;3.80;;;1.63;;
24153;SDS011;12312;53.362;-1.518;2023-07-22T14:19:10;2.28;;;1.60;;
24153;SDS011;12312;53.362;-1.518;2023-07-22T14:21:54;4.10;;;1.50;;
24153;SDS011;12312;53.362;-1.518;2023-07-22T14:24:38;2.60;;;1.48;;
24153;SDS011;12312;53.362;-1.518;2023-07-22T14:27:22;3.20;;;1.67;;
24153;SDS011;12312;53.362;-1.518;2023-07-22T14:30:07;3.15;;;1.80;;
24153;SDS011;12312;53.362;-1.518;2023-07-22T14:32:52;3.28;;;1.45;;
24153;SDS011;12312;53.362;-1.518;2023-07-22T14:35:36;2.40;;;1.30;;
24153;SDS011;12312;53.362;-1.518;2023-07-22T14:38:20;5.43;;;2.13;;
24153;SDS011;12312;53.362;-1.518;2023-07-22T14:41:04;3.33;;;0.90;;
24153;SDS011;12312;53.362;-1.518;2023-07-22T14:43:48;2.30;;;1.42;;
24153;SDS011;12312;53.362;-1.518;2023-07-22T14:46:32;3.55;;;1.50;;
24153;SDS011;12312;53.362;-1.518;2023-07-22T14:49:16;2.13;;;1.30;;
24153;SDS011;12312;53.362;-1.518;2023-07-22T14:52:00;1.38;;;0.88;;
24153;SDS011;12312;53.362;-1.518;2023-07-22T14:54:44;1.15;;;0.75;;
24153;SDS011;12312;53.362;-1.518;2023-07-22T14:57:28;1.90;;;0.70;;
24153;SDS011;12312;53.362;-1.518;2023-07-22T15:00:14;1.90;;;0.68;;
24153;SDS011;12312;53.362;-1.518;2023-07-22T15:02:58;0.90;;;0.60;;
24153;SDS011;12312;53.362;-1.518;2023-07-22T15:05:42;1.27;;;0.80;;
24153;SDS011;12312;53.362;-1.518;2023-07-22T15:08:26;1.77;;;0.60;;
24153;SDS011;12312;53.362;-1.518;2023-07-22T15:11:10;1.73;;;0.50;;
24153;SDS011;12312;53.362;-1.518;2023-07-22T15:13:54;0.80;;;0.50;;
24153;SDS011;12312;53.362;-1.518;2023-07-22T15:16:38;1.33;;;0.50;;
24153;SDS011;12312;53.362;-1.518;2023-07-22T15:19:24;1.52;;;0.50;;
24153;SDS011;12312;53.362;-1.518;2023-07-22T15:22:07;0.90;;;0.52;;
24153;SDS011;12312;53.362;-1.518;2023-07-22T15:24:51;1.27;;;0.57;;
24153;SDS011;12312;53.362;-1.518;2023-07-22T15:27:35;0.70;;;0.50;;
24153;SDS011;12312;53.362;-1.518;2023-07-22T15:30:19;0.98;;;0.60;;
24153;SDS011;12312;53.362;-1.518;2023-07-22T15:33:04;0.75;;;0.40;;
24153;SDS011;12312;53.362;-1.518;2023-07-22T15:35:48;0.57;;;0.50;;
24153;SDS011;12312;53.362;-1.518;2023-07-22T15:38:33;0.68;;;0.50;;
24153;SDS011;12312;53.362;-1.518;2023-07-22T15:41:17;0.60;;;0.40;;
24153;SDS011;12312;53.362;-1.518;2023-07-22T15:44:01;0.50;;;0.50;;
24153;SDS011;12312;53.362;-1.518;2023-07-22T15:46:45;1.25;;;0.60;;
24153;SDS011;12312;53.362;-1.518;2023-07-22T15:49:29;2.30;;;0.65;;
24153;SDS011;12312;53.362;-1.518;2023-07-22T15:52:13;1.15;;;0.60;;
24153;SDS011;12312;53.362;-1.518;2023-07-22T15:54:57;2.10;;;0.65;;
24153;SDS011;12312;53.362;-1.518;2023-07-22T15:57:41;1.75;;;0.77;;
24153;SDS011;12312;53.362;-1.518;2023-07-22T16:00:25;0.90;;;0.80;;
24153;SDS011;12312;53.362;-1.518;2023-07-22T16:03:08;2.70;;;0.77;;
24153;SDS011;12312;53.362;-1.518;2023-07-22T16:05:54;2.70;;;1.00;;
24153;SDS011;12312;53.362;-1.518;2023-07-22T16:08:39;1.38;;;0.60;;
24153;SDS011;12312;53.362;-1.518;2023-07-22T16:11:23;1.52;;;0.77;;
24153;SDS011;12312;53.362;-1.518;2023-07-22T16:14:07;1.50;;;0.80;;
24153;SDS011;12312;53.362;-1.518;2023-07-22T16:16:51;3.00;;;0.90;;
24153;SDS011;12312;53.362;-1.518;2023-07-22T16:19:36;1.10;;;0.80;;
24153;SDS011;12312;53.362;-1.518;2023-07-22T16:22:20;1.23;;;0.85;;
24153;SDS011;12312;53.362;-1.518;2023-07-22T16:25:05;1.50;;;0.93;;